createdAt,value
2022-11-02T00:00:53.217Z,100636.31
2022-11-02T00:03:31.141Z,100637.00
2022-11-02T00:05:59.240Z,100645.47
2022-11-02T00:08:26.733Z,100650.78
2022-11-02T00:10:54.522Z,100641.16
2022-11-02T00:13:22.173Z,100646.09
2022-11-02T00:15:50.088Z,100646.72
2022-11-02T00:18:17.789Z,100645.53
2022-11-02T00:20:45.816Z,100647.28
2022-11-02T00:23:14.823Z,100653.41
2022-11-02T00:25:47.028Z,100646.72
2022-11-02T00:28:15.657Z,100648.09
2022-11-02T00:30:44.441Z,100659.97
2022-11-02T00:33:12.251Z,100660.66
2022-11-02T00:35:41.269Z,100655.53
2022-11-02T00:38:08.931Z,100655.03
2022-11-02T00:40:36.886Z,100672.59
2022-11-02T00:43:06.308Z,100667.13
2022-11-02T00:45:34.348Z,100660.84
2022-11-02T00:48:02.295Z,100661.91
2022-11-02T00:50:31.327Z,100666.78
2022-11-02T00:52:58.891Z,100670.06
2022-11-02T00:55:26.760Z,100677.97
2022-11-02T00:57:59.172Z,100679.72
2022-11-02T01:00:27.136Z,100681.50
2022-11-02T01:02:54.645Z,100695.25
2022-11-02T01:05:22.432Z,100692.81
2022-11-02T01:07:50.059Z,100695.84
2022-11-02T01:10:17.951Z,100695.41
2022-11-02T01:12:47.513Z,100688.00
2022-11-02T01:15:15.406Z,100695.31
2022-11-02T01:17:42.872Z,100697.56
2022-11-02T01:20:11.397Z,100702.53
2022-11-02T01:22:39.007Z,100700.94
2022-11-02T01:25:07.974Z,100707.03
2022-11-02T01:27:35.710Z,100710.84
2022-11-02T01:30:05.656Z,100710.44
2022-11-02T01:32:33.319Z,100706.84
2022-11-02T01:35:02.837Z,100709.34
2022-11-02T01:37:30.357Z,100708.00
2022-11-02T01:39:58.264Z,100714.69
2022-11-02T01:42:28.556Z,100716.03
2022-11-02T01:44:57.506Z,100728.25
2022-11-02T01:47:36.145Z,100725.13
2022-11-02T01:50:19.122Z,100719.63
2022-11-02T01:52:46.856Z,100717.28
2022-11-02T01:55:26.210Z,100722.56
2022-11-02T01:58:00.975Z,100720.31
2022-11-02T02:00:28.940Z,100707.66
2022-11-02T02:03:21.360Z,100707.66
2022-11-02T02:06:13.878Z,100710.25
2022-11-02T02:08:46.253Z,100709.44
2022-11-02T02:11:37.548Z,100703.63
2022-11-02T02:14:18.776Z,100709.69
2022-11-02T02:17:25.077Z,100713.03
2022-11-02T02:20:10.314Z,100714.19
2022-11-02T02:23:25.401Z,100714.41
2022-11-02T02:26:32.428Z,100713.50
2022-11-02T02:29:09.048Z,100708.84
2022-11-02T02:31:38.786Z,100705.69
2022-11-02T02:34:21.013Z,100716.44
2022-11-02T02:37:08.105Z,100719.34
2022-11-02T02:39:44.349Z,100714.31
2022-11-02T02:42:43.936Z,100720.03
2022-11-02T02:45:23.322Z,100731.47
2022-11-02T02:48:26.793Z,100726.06
2022-11-02T02:51:02.275Z,100725.97
2022-11-02T02:53:41.947Z,100724.72
2022-11-02T02:56:12.143Z,100722.38
2022-11-02T02:58:56.935Z,100723.41
2022-11-02T03:01:26.523Z,100729.22
2022-11-02T03:03:54.621Z,100727.19
2022-11-02T03:06:35.425Z,100722.50
2022-11-02T03:09:30.201Z,100735.50
2022-11-02T03:12:06.978Z,100728.53
2022-11-02T03:14:58.859Z,100731.69
2022-11-02T03:18:06.099Z,100734.50
2022-11-02T03:20:59.051Z,100732.34
2022-11-02T03:23:37.872Z,100738.97
2022-11-02T03:26:36.424Z,100739.09
2022-11-02T03:29:09.863Z,100750.50
2022-11-02T03:31:56.938Z,100741.31
2022-11-02T03:34:45.695Z,100751.94
2022-11-02T03:37:26.288Z,100750.06
2022-11-02T03:40:25.612Z,100754.19
2022-11-02T03:42:56.247Z,100760.81
2022-11-02T03:45:30.024Z,100765.06
2022-11-02T03:48:06.936Z,100763.69
2022-11-02T03:50:37.815Z,100765.94
2022-11-02T03:53:40.946Z,100752.38
2022-11-02T03:56:23.141Z,100756.19
2022-11-02T03:58:51.683Z,100750.38
2022-11-02T04:01:21.167Z,100752.59
2022-11-02T04:03:50.023Z,100754.03
2022-11-02T04:06:19.819Z,100750.47
2022-11-02T04:08:49.756Z,100753.91
2022-11-02T04:11:39.168Z,100742.38
2022-11-02T04:14:30.396Z,100753.47
2022-11-02T04:17:18.411Z,100756.94
2022-11-02T04:19:50.074Z,100756.16
2022-11-02T04:22:39.326Z,100760.06
2022-11-02T04:25:18.587Z,100769.13
2022-11-02T04:28:15.188Z,100771.22
2022-11-02T04:30:49.600Z,100767.19
2022-11-02T04:33:34.797Z,100784.63
2022-11-02T04:36:14.647Z,100776.53
2022-11-02T04:38:43.333Z,100778.63
2022-11-02T04:41:40.019Z,100772.84
2022-11-02T04:44:14.635Z,100765.53
2022-11-02T04:46:45.247Z,100763.84
2022-11-02T04:49:14.798Z,100772.34
2022-11-02T04:51:48.691Z,100775.97
2022-11-02T04:54:19.464Z,100772.84
2022-11-02T04:56:51.204Z,100772.72
2022-11-02T04:59:21.347Z,100780.31
2022-11-02T05:01:49.405Z,100784.72
2022-11-02T05:04:17.723Z,100790.28
2022-11-02T05:06:46.961Z,100792.91
2022-11-02T05:09:14.764Z,100793.22
2022-11-02T05:11:45.965Z,100799.09
2022-11-02T05:14:13.776Z,100798.97
2022-11-02T05:16:41.470Z,100798.81
2022-11-02T05:19:11.100Z,100803.41
2022-11-02T05:21:40.465Z,100801.53
2022-11-02T05:24:11.821Z,100802.19
2022-11-02T05:26:39.885Z,100802.97
2022-11-02T05:29:09.431Z,100811.50
2022-11-02T05:31:37.956Z,100812.88
2022-11-02T05:34:06.319Z,100805.59
2022-11-02T05:36:33.939Z,100811.78
2022-11-02T05:39:02.425Z,100811.13
2022-11-02T05:41:30.215Z,100811.28
2022-11-02T05:44:00.130Z,100821.69
2022-11-02T05:46:29.483Z,100819.81
2022-11-02T05:48:57.298Z,100832.47
2022-11-02T05:51:25.003Z,100833.28
2022-11-02T05:53:52.819Z,100835.63
2022-11-02T05:56:24.791Z,100841.44
2022-11-02T05:58:55.699Z,100849.31
2022-11-02T06:01:23.585Z,100853.56
2022-11-02T06:03:53.749Z,100863.38
2022-11-02T06:06:22.099Z,100867.00
2022-11-02T06:08:49.962Z,100866.56
2022-11-02T06:11:17.788Z,100885.53
2022-11-02T06:13:49.473Z,100888.84
2022-11-02T06:16:22.629Z,100891.22
2022-11-02T06:18:50.812Z,100893.91
2022-11-02T06:21:18.587Z,100890.44
2022-11-02T06:23:49.792Z,100899.09
2022-11-02T06:26:17.422Z,100905.38
2022-11-02T06:28:45.229Z,100901.16
2022-11-02T06:31:31.083Z,100913.56
2022-11-02T06:33:58.887Z,100910.75
2022-11-02T06:36:26.465Z,100914.56
2022-11-02T06:38:54.260Z,100912.78
2022-11-02T06:41:22.256Z,100922.09
2022-11-02T06:43:50.165Z,100923.81
2022-11-02T06:46:17.895Z,100923.81
2022-11-02T06:48:48.419Z,100919.88
2022-11-02T06:51:16.329Z,100927.63
2022-11-02T06:53:44.112Z,100930.75
2022-11-02T06:56:12.499Z,100933.59
2022-11-02T06:58:40.580Z,100927.91
2022-11-02T07:01:08.998Z,100933.44
2022-11-02T07:03:37.309Z,100939.13
2022-11-02T07:06:09.692Z,100943.53
2022-11-02T07:08:40.696Z,100932.19
2022-11-02T07:11:08.244Z,100936.72
2022-11-02T07:13:37.823Z,100939.56
2022-11-02T07:16:05.700Z,100937.69
2022-11-02T07:18:33.402Z,100935.47
2022-11-02T07:21:01.715Z,100947.44
2022-11-02T07:23:29.735Z,100941.28
2022-11-02T07:25:57.226Z,100940.22
2022-11-02T07:28:24.977Z,100952.50
2022-11-02T07:30:55.488Z,100939.88
2022-11-02T07:33:23.484Z,100944.94
2022-11-02T07:35:51.131Z,100947.44
2022-11-02T07:38:19.111Z,100949.94
2022-11-02T07:40:50.890Z,100964.94
2022-11-02T07:43:18.655Z,100969.38
2022-11-02T07:45:57.487Z,100975.50
2022-11-02T07:48:25.279Z,100974.59
2022-11-02T07:50:52.789Z,100980.59
2022-11-02T07:53:20.570Z,100978.69
2022-11-02T07:55:48.124Z,100972.53
2022-11-02T07:58:15.899Z,100977.59
2022-11-02T08:00:43.664Z,100970.00
2022-11-02T08:03:12.635Z,100969.38
2022-11-02T08:05:42.877Z,100966.50
2022-11-02T08:08:17.791Z,100966.94
2022-11-02T08:10:48.125Z,100970.09
2022-11-02T08:13:20.499Z,100966.47
2022-11-02T08:15:52.906Z,100971.22
2022-11-02T08:18:23.605Z,100972.13
2022-11-02T08:20:51.631Z,100982.88
2022-11-02T08:23:21.004Z,100971.78
2022-11-02T08:25:50.893Z,100964.47
2022-11-02T08:28:32.236Z,100962.28
2022-11-02T08:31:00.003Z,100952.88
2022-11-02T08:33:31.571Z,100965.72
2022-11-02T08:36:06.277Z,100952.38
2022-11-02T08:38:34.369Z,100953.41
2022-11-02T08:41:04.468Z,100954.19
2022-11-02T08:43:32.311Z,100952.94
2022-11-02T08:46:17.228Z,100955.31
2022-11-02T08:48:45.572Z,100959.91
2022-11-02T08:51:13.204Z,100954.97
2022-11-02T08:53:41.172Z,100953.06
2022-11-02T08:56:08.733Z,100959.56
2022-11-02T08:58:36.581Z,100953.53
2022-11-02T09:01:04.137Z,100969.00
2022-11-02T09:03:32.203Z,100962.97
2022-11-02T09:06:02.101Z,100964.22
2022-11-02T09:08:31.451Z,100964.81
2022-11-02T09:11:03.787Z,100957.31
2022-11-02T09:13:31.836Z,100949.72
2022-11-02T09:16:00.747Z,100944.34
2022-11-02T09:18:28.941Z,100950.16
2022-11-02T09:20:57.075Z,100949.16
2022-11-02T09:23:28.285Z,100948.97
2022-11-02T09:25:56.014Z,100956.47
2022-11-02T09:28:23.880Z,100955.63
2022-11-02T09:30:51.353Z,100958.00
2022-11-02T09:33:19.491Z,100957.19
2022-11-02T09:35:49.262Z,100951.38
2022-11-02T09:38:18.709Z,100942.66
2022-11-02T09:40:56.195Z,100944.66
2022-11-02T09:43:33.077Z,100946.72
2022-11-02T09:46:16.839Z,100944.00
2022-11-02T09:48:56.123Z,100935.06
2022-11-02T09:51:56.725Z,100934.09
2022-11-02T09:54:40.890Z,100933.66
2022-11-02T09:57:38.628Z,100929.59
2022-11-02T10:00:13.186Z,100920.41
2022-11-02T10:03:06.206Z,100906.75
2022-11-02T10:05:34.774Z,100910.34
2022-11-02T10:08:44.349Z,100914.63
2022-11-02T10:11:28.192Z,100913.66
2022-11-02T10:14:23.258Z,100913.31
2022-11-02T10:17:29.965Z,100916.22
2022-11-02T10:20:05.137Z,100934.09
2022-11-02T10:22:41.591Z,100939.03
2022-11-02T10:25:16.046Z,100938.38
2022-11-02T10:27:48.916Z,100931.50
2022-11-02T10:30:20.556Z,100925.09
2022-11-02T10:32:53.028Z,100926.75
2022-11-02T10:36:23.961Z,100929.97
2022-11-02T10:39:24.719Z,100923.50
2022-11-02T10:42:10.487Z,100916.66
2022-11-02T10:45:12.043Z,100923.84
2022-11-02T10:48:11.353Z,100920.38
2022-11-02T10:51:08.946Z,100914.88
2022-11-02T10:53:44.054Z,100899.97
2022-11-02T10:56:25.323Z,100896.19
2022-11-02T10:59:14.190Z,100889.22
2022-11-02T11:01:57.305Z,100889.53
2022-11-02T11:04:28.391Z,100892.13
2022-11-02T11:06:57.378Z,100901.09
2022-11-02T11:09:36.995Z,100897.28
2022-11-02T11:12:38.562Z,100893.50
2022-11-02T11:20:44.447Z,100888.09
2022-11-02T11:23:26.365Z,100892.94
2022-11-02T11:25:57.672Z,100888.50
2022-11-02T11:28:32.528Z,100875.50
2022-11-02T11:31:17.740Z,100871.81
2022-11-02T11:33:58.491Z,100866.00
2022-11-02T11:36:36.069Z,100867.50
2022-11-02T11:39:29.537Z,100870.84
2022-11-02T11:41:58.528Z,100866.38
2022-11-02T11:44:26.598Z,100870.72
2022-11-02T11:46:58.706Z,100874.16
2022-11-02T11:50:03.092Z,100872.59
2022-11-02T11:52:31.963Z,100875.09
2022-11-02T11:55:19.143Z,100882.03
2022-11-02T11:57:46.860Z,100871.38
2022-11-02T12:00:29.795Z,100866.59
2022-11-02T12:03:12.163Z,100856.06
2022-11-02T12:05:51.870Z,100858.22
2022-11-02T12:08:42.392Z,100855.31
2022-11-02T12:12:03.502Z,100853.72
2022-11-02T12:15:07.084Z,100848.34
2022-11-02T12:17:35.044Z,100852.28
2022-11-02T12:20:36.118Z,100846.28
2022-11-02T12:23:39.172Z,100841.78
2022-11-02T12:26:49.068Z,100840.34
2022-11-02T12:30:04.185Z,100837.28
2022-11-02T12:32:52.667Z,100849.63
2022-11-02T12:35:48.444Z,100843.91
2022-11-02T12:39:30.079Z,100837.06
2022-11-02T12:42:25.841Z,100839.53
2022-11-02T12:45:26.703Z,100837.66
2022-11-02T12:48:02.288Z,100841.13
2022-11-02T12:50:54.801Z,100840.44
2022-11-02T12:53:31.595Z,100835.84
2022-11-02T12:56:04.133Z,100838.97
2022-11-02T12:58:37.360Z,100828.97
2022-11-02T13:01:27.536Z,100830.56
2022-11-02T13:04:02.205Z,100848.28
2022-11-02T13:06:39.833Z,100841.34
2022-11-02T13:09:29.116Z,100842.56
2022-11-02T13:12:15.509Z,100836.84
2022-11-02T13:15:06.652Z,100844.03
2022-11-02T13:17:49.750Z,100849.63
2022-11-02T13:20:42.717Z,100843.34
2022-11-02T13:23:34.632Z,100847.16
2022-11-02T13:26:23.817Z,100841.13
2022-11-02T13:29:06.735Z,100845.34
2022-11-02T13:32:09.945Z,100848.97
2022-11-02T13:34:45.181Z,100845.13
2022-11-02T13:37:35.611Z,100851.22
2022-11-02T13:40:26.099Z,100852.66
2022-11-02T13:43:47.728Z,100853.31
2022-11-02T13:46:47.844Z,100845.47
2022-11-02T13:49:43.404Z,100847.44
2022-11-02T13:52:36.839Z,100853.16
2022-11-02T13:55:07.829Z,100842.84
2022-11-02T13:57:45.919Z,100840.59
2022-11-02T14:00:31.017Z,100845.31
2022-11-02T14:03:17.960Z,100838.72
2022-11-02T14:06:00.782Z,100836.69
2022-11-02T14:09:07.774Z,100854.53
2022-11-02T14:11:47.874Z,100857.22
2022-11-02T14:14:23.089Z,100850.41
2022-11-02T14:16:50.863Z,100837.06
2022-11-02T14:19:20.285Z,100849.84
2022-11-02T14:21:51.263Z,100848.75
2022-11-02T14:24:34.179Z,100848.03
2022-11-02T14:27:23.374Z,100851.88
2022-11-02T14:29:54.579Z,100853.31
2022-11-02T14:32:26.671Z,100844.91
2022-11-02T14:35:27.919Z,100844.13
2022-11-02T14:38:36.343Z,100838.88
2022-11-02T14:41:16.403Z,100848.28
2022-11-02T14:43:59.167Z,100840.66
2022-11-02T14:46:46.552Z,100853.44
2022-11-02T14:49:37.433Z,100855.00
2022-11-02T14:52:23.178Z,100859.38
2022-11-02T14:55:19.861Z,100856.25
2022-11-02T14:58:00.822Z,100853.91
2022-11-02T15:00:47.452Z,100861.53
2022-11-02T15:03:24.331Z,100854.56
2022-11-02T15:06:13.906Z,100858.03
2022-11-02T15:08:58.716Z,100856.16
2022-11-02T15:12:01.372Z,100860.72
2022-11-02T15:14:35.873Z,100866.91
2022-11-02T15:17:15.352Z,100868.34
2022-11-02T15:20:16.084Z,100869.59
2022-11-02T15:23:28.476Z,100873.41
2022-11-02T15:25:59.973Z,100874.06
2022-11-02T15:28:32.611Z,100875.22
2022-11-02T15:31:06.588Z,100884.28
2022-11-02T15:33:44.366Z,100878.00
2022-11-02T15:36:39.684Z,100884.38
2022-11-02T15:39:10.729Z,100893.56
2022-11-02T15:42:03.382Z,100897.06
2022-11-02T15:44:45.941Z,100890.41
2022-11-02T15:47:28.666Z,100899.59
2022-11-02T15:50:17.768Z,100902.75
2022-11-02T15:53:23.504Z,100910.16
2022-11-02T15:56:25.504Z,100908.72
2022-11-02T15:59:25.720Z,100907.94
2022-11-02T16:02:29.921Z,100910.16
2022-11-02T16:05:01.850Z,100910.34
2022-11-02T16:07:38.384Z,100920.66
2022-11-02T16:10:36.746Z,100921.13
2022-11-02T16:13:17.224Z,100924.63
2022-11-02T16:15:48.973Z,100914.97
2022-11-02T16:18:44.860Z,100927.16
2022-11-02T16:21:17.911Z,100926.25
2022-11-02T16:23:53.966Z,100922.44
2022-11-02T16:26:29.482Z,100927.50
2022-11-02T16:28:59.912Z,100931.41
2022-11-02T16:31:32.959Z,100934.56
2022-11-02T16:34:15.811Z,100935.06
2022-11-02T16:36:44.041Z,100938.84
2022-11-02T16:39:23.166Z,100945.19
2022-11-02T16:41:56.294Z,100946.88
2022-11-02T16:44:36.100Z,100947.19
2022-11-02T16:47:07.222Z,100948.41
2022-11-02T16:49:58.172Z,100952.69
2022-11-02T16:52:37.940Z,100946.66
2022-11-02T16:55:35.449Z,100948.69
2022-11-02T16:58:09.571Z,100957.09
2022-11-02T17:00:37.411Z,100954.72
2022-11-02T17:03:14.480Z,100959.44
2022-11-02T17:05:47.827Z,100957.19
2022-11-02T17:08:35.515Z,100961.16
2022-11-02T17:11:05.906Z,100958.31
2022-11-02T17:13:43.511Z,100966.84
2022-11-02T17:16:13.636Z,100966.84
2022-11-02T17:18:42.030Z,100959.13
2022-11-02T17:21:26.162Z,100966.84
2022-11-02T17:23:55.378Z,100970.03
2022-11-02T17:26:22.952Z,100970.16
2022-11-02T17:28:59.648Z,100972.19
2022-11-02T17:31:41.241Z,100969.59
2022-11-02T17:34:17.574Z,100966.09
2022-11-02T17:36:49.006Z,100971.16
2022-11-02T17:39:20.237Z,100962.63
2022-11-02T17:42:17.014Z,100969.13
2022-11-02T17:44:45.729Z,100971.56
2022-11-02T17:47:17.787Z,100967.66
2022-11-02T17:49:45.401Z,100971.47
2022-11-02T17:52:16.404Z,100964.34
2022-11-02T17:54:44.235Z,100977.34
2022-11-02T17:57:15.257Z,100979.81
2022-11-02T17:59:42.791Z,100975.41
2022-11-02T18:02:15.781Z,100971.56
2022-11-02T18:07:16.774Z,100972.91
2022-11-02T18:09:44.302Z,100975.91
2022-11-02T18:12:15.988Z,100974.16
2022-11-02T18:14:43.640Z,100976.97
2022-11-02T18:17:11.694Z,100969.34
2022-11-02T18:19:39.385Z,100970.91
2022-11-02T18:22:09.386Z,100972.28
2022-11-02T18:24:37.519Z,100973.63
2022-11-02T18:27:05.310Z,100972.97
2022-11-02T18:29:32.762Z,100973.41
2022-11-02T18:32:00.522Z,100975.44
2022-11-02T18:34:28.012Z,100970.97
2022-11-02T18:36:55.962Z,100971.88
2022-11-02T18:39:23.751Z,100970.41
2022-11-02T18:41:53.421Z,100966.28
2022-11-02T18:44:24.318Z,100959.31
2022-11-02T18:46:57.773Z,100961.34
2022-11-02T18:49:27.459Z,100959.31
2022-11-02T18:51:55.459Z,100958.19
2022-11-02T18:54:23.005Z,100963.25
2022-11-02T18:56:50.957Z,100964.03
2022-11-02T18:59:18.458Z,100950.56
2022-11-02T19:01:46.662Z,100950.13
2022-11-02T19:04:17.445Z,100958.53
2022-11-02T19:07:04.957Z,100942.72
2022-11-02T19:09:33.681Z,100945.41
2022-11-02T19:12:07.908Z,100946.06
2022-11-02T19:14:46.893Z,100955.72
2022-11-02T19:17:15.178Z,100956.81
2022-11-02T19:19:49.181Z,100966.81
2022-11-02T19:22:21.246Z,100957.59
2022-11-02T19:24:49.664Z,100954.59
2022-11-02T19:27:25.491Z,100951.13
2022-11-02T19:29:53.088Z,100943.81
2022-11-02T19:32:21.822Z,100948.09
2022-11-02T19:34:50.556Z,100951.56
2022-11-02T19:37:19.372Z,100954.25
2022-11-02T19:39:49.601Z,100969.28
2022-11-02T19:42:18.148Z,100963.09
2022-11-02T19:44:46.640Z,100965.00
2022-11-02T19:47:14.686Z,100967.72
2022-11-02T19:49:43.322Z,100970.06
2022-11-02T19:52:11.523Z,100971.53
2022-11-02T19:54:39.076Z,100965.00
2022-11-02T19:57:11.044Z,100966.16
2022-11-02T19:59:38.776Z,100957.72
2022-11-02T20:02:06.758Z,100956.59
2022-11-02T20:04:41.035Z,100957.06
2022-11-02T20:07:10.278Z,100955.50
2022-11-02T20:09:37.865Z,100972.88
2022-11-02T20:12:07.599Z,100978.69
2022-11-02T20:14:37.106Z,100985.34
2022-11-02T20:17:29.693Z,100979.97
2022-11-02T20:19:52.474Z,100992.63
2022-11-02T20:22:20.282Z,100983.31
2022-11-02T20:24:47.872Z,100982.88
2022-11-02T20:27:15.765Z,100979.72
2022-11-02T20:29:43.387Z,100984.50
2022-11-02T20:32:12.579Z,100986.44
2022-11-02T20:34:40.221Z,100984.41
2022-11-02T20:37:09.363Z,100987.53
2022-11-02T20:39:36.904Z,100989.66
2022-11-02T20:42:04.943Z,100987.19
2022-11-02T20:44:32.943Z,100997.94
2022-11-02T20:47:00.913Z,100989.53
2022-11-02T20:49:49.409Z,100998.06
2022-11-02T20:52:16.400Z,100987.97
2022-11-02T20:54:43.970Z,100992.22
2022-11-02T20:57:11.831Z,100984.16
2022-11-02T20:59:39.656Z,100991.13
2022-11-02T21:02:12.585Z,100992.03
2022-11-02T21:04:40.504Z,100994.50
2022-11-02T21:07:08.356Z,100992.25
2022-11-02T21:09:39.190Z,100991.59
2022-11-02T21:12:26.073Z,100980.84
2022-11-02T21:14:53.647Z,100987.81
2022-11-02T21:17:21.596Z,100977.81
2022-11-02T21:19:57.987Z,100979.41
2022-11-02T21:22:36.684Z,100968.47
2022-11-02T21:25:04.553Z,100969.84
2022-11-02T21:27:32.475Z,100972.06
2022-11-02T21:30:00.063Z,100979.03
2022-11-02T21:32:28.005Z,100981.38
2022-11-02T21:34:55.560Z,100970.28
2022-11-02T21:37:23.743Z,100985.66
2022-11-02T21:39:51.256Z,100979.03
2022-11-02T21:42:19.209Z,100972.06
2022-11-02T21:44:46.771Z,100972.97
2022-11-02T21:47:16.940Z,100968.38
2022-11-02T21:49:44.499Z,100978.81
2022-11-02T21:52:13.794Z,100965.34
2022-11-02T21:54:41.350Z,100980.59
2022-11-02T21:57:09.245Z,100980.81
2022-11-02T21:59:36.739Z,100980.38
2022-11-02T22:02:04.800Z,100975.09
2022-11-02T22:04:32.510Z,100980.47
2022-11-02T22:07:01.105Z,100970.16
2022-11-02T22:09:29.286Z,100969.94
2022-11-02T22:12:16.128Z,100978.59
2022-11-02T22:14:44.928Z,100980.16
2022-11-02T22:17:35.389Z,100970.41
2022-11-02T22:20:01.590Z,100981.50
2022-11-02T22:22:29.218Z,100986.88
2022-11-02T22:24:56.991Z,100988.66
2022-11-02T22:27:24.492Z,100992.91
2022-11-02T22:29:52.332Z,100994.50
2022-11-02T22:32:19.880Z,100999.22
2022-11-02T22:34:48.038Z,101001.72
2022-11-02T22:37:34.297Z,101005.63
2022-11-02T22:40:02.234Z,101011.59
2022-11-02T22:42:29.694Z,101002.84
2022-11-02T22:44:58.596Z,100999.81
2022-11-02T22:47:26.467Z,100998.38
2022-11-02T22:49:54.469Z,100996.56
2022-11-02T22:52:21.999Z,101000.72
2022-11-02T22:54:50.481Z,101000.28
2022-11-02T22:57:17.944Z,101001.41
2022-11-02T22:59:45.809Z,101007.09
2022-11-02T23:02:13.402Z,101001.94
2022-11-02T23:04:41.411Z,101000.34
2022-11-02T23:07:09.060Z,101012.72
2022-11-02T23:09:37.050Z,101011.13
2022-11-02T23:12:04.789Z,101003.25
2022-11-02T23:14:32.845Z,101005.94
2022-11-02T23:17:00.580Z,101010.34
2022-11-02T23:19:33.099Z,101005.75
2022-11-02T23:22:23.687Z,101015.06
2022-11-02T23:25:14.228Z,101011.25
2022-11-02T23:28:14.606Z,101007.00
2022-11-02T23:31:02.280Z,101007.78
2022-11-02T23:33:48.189Z,101005.06
2022-11-02T23:36:16.391Z,101004.75
2022-11-02T23:39:05.379Z,101001.72
2022-11-02T23:41:36.822Z,100996.78
2022-11-02T23:44:19.014Z,101002.16
2022-11-02T23:46:51.197Z,100996.13
2022-11-02T23:49:19.351Z,101001.50
2022-11-02T23:52:06.080Z,100998.16
2022-11-02T23:54:52.213Z,101000.06
2022-11-02T23:57:22.500Z,101017.00
2022-11-02T23:59:50.700Z,101008.25
